M I D A S
Marine Information and Data Acquisition System
Tripno 58 of the Zeeleeuw from 2001-07-30 06:34:18 to 2001-07-30 16:30:00
Back to CruiseResearch ActivitiesStationsMapUnderway DataData graphs

EquipmentUnitsComments
TimeDGPSUTC
LatitudeDGPSDM.mWGS84
LongitudeDGPSDM.mWGS84
SpeedMeteo Stationm/sRelative wind speed
DirectionMeteo StationdegRelative wind direction
TemperatureMeteo Stationdeg CelciusAir temperature
PressureMeteo StationPaAtmospheric pressure
HumidityMeteo Station%Relative humidity
Missing or incorrect values are displayed as -999
Metereological data collected by the RV Zeeleeuw from 2001-07-30 06:34:18 to 2001-07-30 16:30:00
Time Latitude Longitude Speed Direction Temperature Pressure Humidity
2001-07-30 06:35 51°13.675 2°55.925 3.3 202 21 102250 74
2001-07-30 06:36 51°13.676 2°55.925 3.5 224 21 102250 74
2001-07-30 06:37 51°13.676 2°55.924 2.6 208 21 102260 74
2001-07-30 06:38 51°13.676 2°55.924 2.6 203 21 102250 74
2001-07-30 06:39 51°13.676 2°55.924 2.4 203 21 102250 74
2001-07-30 06:40 51°13.676 2°55.924 2.2 210 21 102260 75
2001-07-30 06:41 51°13.676 2°55.924 3.5 208 21 102260 74
2001-07-30 06:42 51°13.676 2°55.924 2.8 221 21 102250 74
2001-07-30 06:43 51°13.676 2°55.924 3.2 208 21 102260 75
2001-07-30 06:44 51°13.676 2°55.924 2.9 204 21 102250 74
2001-07-30 06:45 51°13.676 2°55.924 3.1 232 21 102250 74
2001-07-30 06:46 51°13.676 2°55.924 3.7 134 21.1 102250 74
2001-07-30 06:47 51°13.676 2°55.924 3.8 232 21.1 102250 75
2001-07-30 06:48 51°13.676 2°55.924 3.6 232 21.1 102250 74
2001-07-30 06:49 51°13.676 2°55.924 3.6 210 21.1 102260 75
2001-07-30 06:50 51°13.677 2°55.924 3.3 227 21.1 102260 74
2001-07-30 06:51 51°13.677 2°55.924 2.2 222 21.1 102260 74
2001-07-30 06:52 51°13.678 2°55.924 3.3 208 21.1 102250 74
2001-07-30 06:53 51°13.678 2°55.924 2.8 205 21.1 102260 75
2001-07-30 06:54 51°13.678 2°55.924 3.5 242 21.1 102260 74
2001-07-30 06:55 51°13.678 2°55.924 2.7 211 21.1 102260 74
2001-07-30 06:56 51°13.676 2°55.924 3.6 220 21.2 102260 75
2001-07-30 06:57 51°13.675 2°55.924 3.2 212 21.1 102260 74
2001-07-30 06:58 51°13.676 2°55.924 3.9 205 21.1 102260 74
2001-07-30 06:59 51°13.676 2°55.924 2.9 207 21.1 102260 75
2001-07-30 07:00 51°13.676 2°55.924 1.9 198 21.1 102260 74
2001-07-30 07:01 51°13.676 2°55.924 2.6 206 21.1 102260 74
2001-07-30 07:02 51°13.676 2°55.924 3.5 215 21.1 102260 75
2001-07-30 07:03 51°13.676 2°55.924 2.1 196 21.1 102260 74
2001-07-30 07:04 51°13.676 2°55.924 2.7 207 21.1 102270 75
2001-07-30 07:05 51°13.676 2°55.923 4.3 211 21 102270 75
2001-07-30 07:06 51°13.676 2°55.923 2.6 213 21 102270 75
2001-07-30 07:07 51°13.676 2°55.923 3.2 206 21.1 102270 75
2001-07-30 07:08 51°13.676 2°55.923 2.6 214 21 102270 75
2001-07-30 07:09 51°13.676 2°55.923 3.8 201 21.1 102270 75
2001-07-30 07:10 51°13.676 2°55.923 3.7 203 21.1 102280 75
2001-07-30 07:11 51°13.676 2°55.923 4 203 21 102270 76
2001-07-30 07:12 51°13.677 2°55.924 3.7 198 21 102270 74
2001-07-30 07:13 51°13.677 2°55.924 4 200 21 102270 76
2001-07-30 07:14 51°13.677 2°55.924 3.7 198 21 102270 75
2001-07-30 07:15 51°13.676 2°55.924 2.4 210 20.9 102270 76
2001-07-30 07:16 51°13.676 2°55.924 4.2 206 20.9 102280 75
2001-07-30 07:17 51°13.676 2°55.924 3.8 209 20.9 102280 75
2001-07-30 07:18 51°13.676 2°55.924 3.7 216 20.9 102280 75
2001-07-30 07:19 51°13.676 2°55.923 3 211 20.9 102280 76
2001-07-30 07:20 51°13.676 2°55.924 3.6 193 20.9 102280 75
2001-07-30 07:21 51°13.676 2°55.924 3.3 208 20.9 102280 75
2001-07-30 07:22 51°13.676 2°55.924 3.9 210 20.9 102280 76
2001-07-30 07:23 51°13.675 2°55.926 3.6 209 20.9 102280 76
2001-07-30 07:24 51°13.674 2°55.927 3.4 195 20.9 102280 76
2001-07-30 07:25 51°13.672 2°55.924 4.4 183 20.9 102280 77
2001-07-30 07:26 51°13.672 2°55.869 6.2 185 21.1 102280 76
2001-07-30 07:27 51°13.672 2°55.783 2.6 164 21.2 102290 76
2001-07-30 07:28 51°13.679 2°55.753 0.7 93 21.5 102280 75
2001-07-30 07:29 51°13.764 2°55.72 6.2 10 21.5 102280 74
2001-07-30 07:30 51°13.871 2°55.614 6.6 36 21.5 102280 75
2001-07-30 07:31 51°14.003 2°55.526 7.8 36 21.4 102270 75
2001-07-30 07:32 51°14.132 2°55.43 10 28 21.3 102270 77
2001-07-30 07:33 51°14.253 2°55.297 11.2 29 21.1 102270 79
2001-07-30 07:34 51°14.349 2°55.111 10.8 32 20.9 102270 80
2001-07-30 07:35 51°14.49 2°54.976 10.1 31 20.7 102260 80
2001-07-30 07:36 51°14.667 2°54.858 12.1 31 20.6 102270 81
2001-07-30 07:37 51°14.841 2°54.722 11.8 29 20.5 102270 81
2001-07-30 07:38 51°15.025 2°54.582 11.9 28 20.4 102260 82
2001-07-30 07:39 51°15.216 2°54.424 11.9 22 20.4 102260 82
2001-07-30 07:40 51°15.415 2°54.263 12.3 23 20.3 102260 82
2001-07-30 07:41 51°15.613 2°54.095 13 24 20.3 102270 83
2001-07-30 07:42 51°15.812 2°53.93 12.6 21 20.2 102260 83
2001-07-30 07:43 51°16.017 2°53.775 12.1 18 20.2 102260 82
2001-07-30 07:44 51°16.216 2°53.613 11.5 23 20.2 102270 83
2001-07-30 07:45 51°16.408 2°53.439 11.6 20 20.1 102270 83
2001-07-30 07:46 51°16.601 2°53.272 12.5 23 20 102270 83
2001-07-30 07:47 51°16.789 2°53.091 13.1 21 20 102270 84
2001-07-30 07:48 51°16.976 2°52.908 12.5 23 19.9 102270 84
2001-07-30 07:49 51°17.17 2°52.727 12.7 15 19.9 102270 84
2001-07-30 07:50 51°17.337 2°52.5 13 15 19.8 102260 84
2001-07-30 07:51 51°17.497 2°52.26 12.6 11 19.8 102270 84
2001-07-30 07:52 51°17.648 2°52.006 12.5 9 19.8 102270 84
2001-07-30 07:53 51°17.757 2°51.718 13 6 19.8 102270 85
2001-07-30 07:54 51°17.824 2°51.404 12.3 7 19.7 102280 84
2001-07-30 07:55 51°17.894 2°51.089 12 3 19.7 102280 85
2001-07-30 07:56 51°17.969 2°50.775 12.2 10 19.7 102280 85
2001-07-30 07:57 51°18.058 2°50.466 12 7 19.6 102280 85
2001-07-30 07:58 51°18.157 2°50.163 11.3 8 19.6 102280 85
2001-07-30 07:59 51°18.243 2°49.85 11.5 8 19.6 102280 86
2001-07-30 08:00 51°18.333 2°49.544 11.9 9 19.5 102280 86
2001-07-30 08:01 51°18.424 2°49.241 12.3 5 19.5 102270 85
2001-07-30 08:02 51°18.495 2°48.928 11.6 4 19.5 102280 86
2001-07-30 08:03 51°18.601 2°48.637 12.8 5 19.5 102280 86
2001-07-30 08:04 51°18.668 2°48.321 12.4 4 19.5 102280 86
2001-07-30 08:05 51°18.748 2°48.012 11.6 1 19.5 102280 85
2001-07-30 08:06 51°18.839 2°47.705 11.4 10 19.5 102280 85
2001-07-30 08:07 51°18.936 2°47.4 11 7 19.4 102280 86
2001-07-30 08:08 51°19.015 2°47.085 11.8 1 19.5 102280 86
2001-07-30 08:09 51°19.088 2°46.768 12.4 1 19.4 102280 86
2001-07-30 08:10 51°19.158 2°46.446 12.1 360 19.4 102290 86
2001-07-30 08:11 51°19.201 2°46.118 11.4 360 19.4 102290 86
2001-07-30 08:12 51°19.285 2°45.813 11.9 6 19.4 102290 86
2001-07-30 08:13 51°19.379 2°45.516 11.5 2 19.4 102290 86
2001-07-30 08:14 51°19.496 2°45.243 11.2 6 19.4 102290 86
2001-07-30 08:17 51°19.748 2°44.563 10.4 5 19.3 102290 86
2001-07-30 08:18 51°19.822 2°44.245 11.2 2 19.3 102280 87
2001-07-30 08:19 51°19.91 2°43.937 11.7 358 19.3 102290 86
2001-07-30 08:20 51°19.986 2°43.62 11.8 1 19.3 102290 86
2001-07-30 08:21 51°20.061 2°43.297 11.7 359 19.2 102290 86
2001-07-30 08:22 51°20.137 2°42.974 11.8 3 19.2 102290 86
2001-07-30 08:23 51°20.223 2°42.661 11.1 4 19.2 102290 87
2001-07-30 08:24 51°20.301 2°42.352 11.1 1 19.2 102290 86
2001-07-30 08:25 51°20.377 2°42.046 11.1 1 19.2 102290 86
2001-07-30 08:26 51°20.457 2°41.741 11.3 1 19.2 102290 86
2001-07-30 08:27 51°20.524 2°41.43 10.1 1 19.2 102300 87
2001-07-30 08:28 51°20.605 2°41.121 10.3 360 19.2 102290 87
2001-07-30 08:29 51°20.703 2°40.818 10.7 360 19.2 102300 87
2001-07-30 08:30 51°20.796 2°40.507 10.3 2 19.1 102290 87
2001-07-30 08:31 51°20.875 2°40.186 10.2 356 19.1 102290 87
2001-07-30 08:32 51°20.948 2°39.862 10.2   19.1 102290 87
2001-07-30 08:33 51°21.034 2°39.548 10.5 5 19.1 102290 87
2001-07-30 08:34 51°21.146 2°39.255 11.7 4 19.1 102290 87
2001-07-30 08:35 51°21.268 2°38.979 10.9 15 19.1 102290 87
2001-07-30 08:36 51°21.483 2°38.865 10 18 19.1 102290 87
2001-07-30 08:37 51°21.71 2°38.787 10.2 19 19.1 102290 87
2001-07-30 08:38 51°21.936 2°38.712 9.8 19 19.1 102290 87
2001-07-30 08:39 51°22.167 2°38.696 10 27 19.1 102290 87
2001-07-30 08:40 51°22.392 2°38.837 8.4 26 19.1 102290 87
2001-07-30 08:41 51°22.612 2°39.012 9 29 19 102290 87
2001-07-30 08:42 51°22.831 2°39.192 8.5 28 19 102290 87
2001-07-30 08:43 51°23.052 2°39.366 8.5 26 19 102290 87
2001-07-30 08:44 51°23.278 2°39.517 8.3 24 19 102290 87
2001-07-30 08:45 51°23.508 2°39.658 8.8 19 19 102290 87
2001-07-30 08:46 51°23.739 2°39.779 8.9 22 19 102290 87
2001-07-30 08:47 51°23.973 2°39.895 9 24 18.9 102290 87
2001-07-30 08:48 51°24.209 2°39.991 9.7 21 18.9 102290 87
2001-07-30 08:49 51°24.435 2°40.132 9.6 25 18.9 102290 87
2001-07-30 08:50 51°24.64 2°40.344 8.6 26 18.9 102300 88
2001-07-30 08:51 51°24.841 2°40.567 7.9 18 18.9 102300 87
2001-07-30 08:52 51°25.056 2°40.753 8.2 20 18.9 102300 87
2001-07-30 08:53 51°25.276 2°40.918 8.6 17 18.9 102290 87
2001-07-30 08:54 51°25.497 2°41.075 7.8 18 18.9 102290 87
2001-07-30 08:55 51°25.717 2°41.241 8.3 16 18.9 102290 87
2001-07-30 08:56 51°25.934 2°41.416 8.4 18 18.9 102290 88
2001-07-30 08:57 51°26.148 2°41.606 8.7 12 18.9 102290 88
2001-07-30 08:58 51°26.367 2°41.787 8.6 14 19 102290 87
2001-07-30 08:59 51°26.576 2°41.99 8.4 12 19 102300 87
2001-07-30 09:00 51°26.772 2°42.23 8.3 14 19 102290 87
2001-07-30 09:01 51°26.945 2°42.512 7.8 13 19.1 102300 87
2001-07-30 09:02 51°27.072 2°42.847 7 11 19.1 102300 86
2001-07-30 09:03 51°27.186 2°43.198 6.6 14 19.1 102300 86
2001-07-30 09:04 51°27.313 2°43.54 7 14 19.1 102300 86
2001-07-30 09:05 51°27.414 2°43.9 6.5 11 19.1 102300 86
2001-07-30 09:06 51°27.465 2°44.286 5.7 11 19.1 102300 85
2001-07-30 09:07 51°27.404 2°44.648 5.4 359 19.1 102310 85
2001-07-30 09:08 51°27.242 2°44.896 5 355 19.1 102310 86
2001-07-30 09:09 51°27.049 2°45.078 5.2 356 19.2 102310 85
2001-07-30 09:10 51°26.854 2°45.248 5.1 356 19.1 102310 86
2001-07-30 09:11 51°26.663 2°45.431 4.9 353 19.1 102310 86
2001-07-30 09:12 51°26.51 2°45.699 5.1 358 19.1 102310 86
2001-07-30 09:13 51°26.326 2°45.895 5 351 19.1 102310 86
2001-07-30 09:14 51°26.124 2°46.024 5.5 351 19.1 102310 86
2001-07-30 09:15 51°25.923 2°46.161 5.3 353 19.2 102310 86
2001-07-30 09:16 51°25.718 2°46.271 5.8 348 19.2 102310 86
2001-07-30 09:17 51°25.51 2°46.353 5.6 350 19.2 102310 86
2001-07-30 09:18 51°25.3 2°46.417 5.3 345 19.2 102310 86
2001-07-30 09:19 51°25.093 2°46.512 4.9 348 19.2 102320 86
2001-07-30 09:20 51°24.915 2°46.719 4.9 355 19.2 102320 86
2001-07-30 09:21 51°24.833 2°47.066 5.8 10 19.2 102320 86
2001-07-30 09:22 51°24.88 2°47.449 6.6 16 19.2 102320 86
2001-07-30 09:23 51°24.98 2°47.813 6.8 20 19.3 102310 86
2001-07-30 09:24 51°25.102 2°48.166 7.7 19 19.3 102310 86
2001-07-30 09:25 51°25.233 2°48.508 7.6 18 19.3 102310 86
2001-07-30 09:26 51°25.359 2°48.856 8.1 19 19.3 102320 86
2001-07-30 09:27 51°25.497 2°49.196 8.3 16 19.3 102310 86
2001-07-30 09:28 51°25.635 2°49.535 7.6 12 19.3 102310 85
2001-07-30 09:29 51°25.786 2°49.858 8.3 12 19.3 102320 85
2001-07-30 09:30 51°25.992 2°50.081 8.7 10 19.4 102310 85
2001-07-30 09:31 51°26.23 2°50.15 9.2 5 19.4 102310 85
2001-07-30 09:32 51°26.459 2°50.071 9.3 2 19.4 102320 85
2001-07-30 09:33 51°26.68 2°49.945 9.1 358 19.3 102310 85
2001-07-30 09:34 51°26.892 2°49.795 9   19.3 102310 85
2001-07-30 09:35 51°27.108 2°49.658 8.7 1 19.3 102310 84
2001-07-30 09:36 51°27.312 2°49.492 8.2 359 19.4 102310 85
2001-07-30 09:37 51°27.512 2°49.315 8.6 1 19.4 102310 85
2001-07-30 09:38 51°27.724 2°49.169 8 2 19.4 102300 84
2001-07-30 09:39 51°27.943 2°49.042 8 357 19.4 102300 84
2001-07-30 09:40 51°28.155 2°48.891 7.7 356 19.4 102300 84
2001-07-30 09:41 51°28.37 2°48.751 7.9 359 19.4 102300 84
2001-07-30 09:42 51°28.589 2°48.708 8.3 7 19.5 102300 84
2001-07-30 09:43 51°28.687 2°49.04 8.2 6 19.5 102310 84
2001-07-30 09:44 51°28.794 2°49.398 8.9 6 19.5 102300 83
2001-07-30 09:45 51°28.903 2°49.76 8.3 2 19.5 102300 83
2001-07-30 09:46 51°29.008 2°50.123 8.4 1 19.5 102300 82
2001-07-30 09:47 51°29.108 2°50.489 8.2 4 19.5 102300 82
2001-07-30 09:48 51°29.215 2°50.855 7.9 1 19.6 102290 82
2001-07-30 09:49 51°29.314 2°51.222 8.3 359 19.6 102290 82
2001-07-30 09:50 51°29.431 2°51.575 7.8 359 19.6 102290 82
2001-07-30 09:51 51°29.524 2°51.943 8.5 359 19.6 102290 83
2001-07-30 09:52 51°29.59 2°52.318 8.1 7 19.6 102300 83
2001-07-30 09:53 51°29.452 2°52.545 6.9 6 19.6 102300 83
2001-07-30 09:54 51°29.259 2°52.696 8.1 2 19.6 102300 83
2001-07-30 09:55 51°29.067 2°52.855 7.4 6 19.6 102300 83
2001-07-30 09:56 51°28.872 2°53.019 7.1 5 19.6 102300 83
2001-07-30 09:57 51°28.679 2°53.176 7 4 19.6 102300 83
2001-07-30 09:58 51°28.48 2°53.326 7.1 3 19.6 102300 83
2001-07-30 09:59 51°28.289 2°53.494 7.3 4 19.6 102300 83
2001-07-30 10:00 51°28.095 2°53.645 7.3   19.7 102300 83
2001-07-30 10:01 51°27.904 2°53.805 7.3 3 19.7 102300 83
2001-07-30 10:02 51°27.713 2°53.97 6.9 6 19.7 102300 83
2001-07-30 10:03 51°27.522 2°54.134 6.9 4 19.6 102300 83
2001-07-30 10:04 51°27.381 2°54.394 7.5 5 19.6 102300 83
2001-07-30 10:05 51°27.473 2°54.731 7.7 2 19.6 102300 82
2001-07-30 10:06 51°27.672 2°54.975 7.5   19.6 102290 83
2001-07-30 10:07 51°27.865 2°55.237 8.6 5 19.7 102290 83
2001-07-30 10:08 51°28.057 2°55.501 8.9 1 19.7 102300 83
2001-07-30 10:09 51°28.255 2°55.757 7.4   19.8 102300 83
2001-07-30 10:10 51°28.447 2°56.017 8.3 359 19.8 102300 83
2001-07-30 10:11 51°28.634 2°56.274 8.5 359 19.8 102300 82
2001-07-30 10:12 51°28.823 2°56.529 8.7 358 19.9 102300 82
2001-07-30 10:13 51°29.017 2°56.787 7.8 358 20 102290 81
2001-07-30 10:14 51°29.208 2°57.049 8.3 357 20.1 102290 81
2001-07-30 10:15 51°29.403 2°57.31 8.3 358 20.1 102300 81
2001-07-30 10:16 51°29.595 2°57.572 8 358 20.2 102300 82
2001-07-30 10:17 51°29.792 2°57.818 7.9 358 20.2 102290 81
2001-07-30 10:18 51°29.987 2°58.074 7.6 356 20.2 102300 80
2001-07-30 10:19 51°30.179 2°58.339 7.9 359 20.2 102300 81
2001-07-30 10:20 51°30.37 2°58.602 8.3 357 20.3 102300 80
2001-07-30 10:21 51°30.563 2°58.863 7.6 358 20.3 102300 80
2001-07-30 10:22 51°30.758 2°59.121 8.2 356 20.4 102300 80
2001-07-30 10:23 51°30.951 2°59.384 8.4 357 20.4 102290 80
2001-07-30 10:24 51°31.093 2°59.703 8.6 360 20.4 102290 80
2001-07-30 10:25 51°31.083 3°0.07 8.8 3 20.4 102290 80
2001-07-30 10:26 51°30.929 3°0.306 7.9 10 20.3 102290 80
2001-07-30 10:27 51°30.738 3°0.451 7.9 8 20.3 102300 80
2001-07-30 10:28 51°30.555 3°0.635 8.6 6 20.3 102290 80
2001-07-30 10:29 51°30.383 3°0.852 9.1 3 20.3 102290 81
2001-07-30 10:30 51°30.22 3°1.092 8.4 1 20.3 102290 80
2001-07-30 10:31 51°30.063 3°1.349 8.7 1 20.3 102300 80
2001-07-30 10:32 51°29.897 3°1.59 9.1 1 20.3 102290 80
2001-07-30 10:33 51°29.713 3°1.78 9.4 359 20.3 102290 80
2001-07-30 10:34 51°29.523 3°1.943 8.7 1 20.3 102300 81
2001-07-30 10:35 51°29.327 3°2.079 9.1 1 20.3 102300 80
2001-07-30 10:36 51°29.128 3°2.206 9 4 20.3 102300 81
2001-07-30 10:37 51°28.93 3°2.335 8.4 1 20.3 102300 81
2001-07-30 10:38 51°28.732 3°2.466 8.5 359 20.2 102300 81
2001-07-30 10:39 51°28.534 3°2.59 8.5 1 20.2 102300 81
2001-07-30 10:40 51°28.334 3°2.692 7.9 358 20.2 102300 81
2001-07-30 10:41 51°28.137 3°2.803 7.5 1 20.2 102310 81
2001-07-30 10:42 51°27.936 3°2.907 7.2 1 20.1 102300 82
2001-07-30 10:43 51°27.732 3°3.008 8.4 359 20.1 102300 82
2001-07-30 10:44 51°27.533 3°3.135 7.9 360 20.1 102300 82
2001-07-30 10:45 51°27.332 3°3.239 7.8   20.1 102300 82
2001-07-30 10:46 51°27.13 3°3.347 7.3 358 20.1 102300 82
2001-07-30 10:47 51°26.929 3°3.454 7.4 357 20.1 102300 82
2001-07-30 10:48 51°26.744 3°3.615 6.6 357 20.1 102300 82
2001-07-30 10:49 51°26.585 3°3.846 6.6 357 20.1 102300 82
2001-07-30 10:50 51°26.466 3°4.144 6.4 357 20.2 102300 81
2001-07-30 10:51 51°26.355 3°4.453 6.7 360 20.2 102300 81
2001-07-30 10:52 51°26.235 3°4.751 6.6 358 20.3 102310 81
2001-07-30 10:53 51°26.135 3°5.069 6.3 357 20.4 102300 81
2001-07-30 10:54 51°26.024 3°5.377 6 355 20.5 102310 80
2001-07-30 10:55 51°25.914 3°5.685 5.4 355 20.5 102310 80
2001-07-30 10:56 51°25.818 3°6.005 5.1 357 20.5 102310 80
2001-07-30 10:57 51°25.676 3°6.262 5.8 353 20.5 102310 80
2001-07-30 10:58 51°25.542 3°6.54 4.9 351 20.5 102310 81
2001-07-30 10:59 51°25.413 3°6.828 5.5 350 20.5 102310 81
2001-07-30 11:00 51°25.313 3°7.147 5.3 349 20.6 102310 82
2001-07-30 11:01 51°25.223 3°7.471 5.4 351 20.6 102310 81
2001-07-30 11:02 51°25.135 3°7.796 5 347 20.6 102310 81
2001-07-30 11:03 51°25.06 3°8.128 4.8 347 20.5 102310 81
2001-07-30 11:04 51°24.977 3°8.457 4.8 348 20.5 102310 81
2001-07-30 11:05 51°24.907 3°8.796 4 350 20.4 102310 82
2001-07-30 11:06 51°24.838 3°9.136 4.7 349 20.5 102310 82
2001-07-30 11:07 51°24.776 3°9.479 5.2 351 20.5 102310 81
2001-07-30 11:08 51°24.7 3°9.81 4.4 351 20.5 102300 82
2001-07-30 11:09 51°24.672 3°10.165 5.3 356 20.6 102310 81
2001-07-30 11:10 51°24.658 3°10.525 4.7 358 20.6 102310 82
2001-07-30 11:11 51°24.689 3°10.884 4.1 359 20.6 102310 81
2001-07-30 11:12 51°24.717 3°11.243 4.3 1 20.6 102310 81
2001-07-30 11:13 51°24.81 3°11.574 4.3 9 20.6 102300 82
2001-07-30 11:14 51°24.975 3°11.823 5.8 19 20.6 102300 82
2001-07-30 11:15 51°25.175 3°11.811 9.3 19 20.5 102290 82
2001-07-30 11:16 51°25.342 3°11.57 10.2 11 20.5 102290 82
2001-07-30 11:17 51°25.494 3°11.299 10.2 14 20.5 102290 82
2001-07-30 11:18 51°25.619 3°11 9.5 11 20.5 102290 81
2001-07-30 11:19 51°25.749 3°10.705 9.2 11 20.6 102290 81
2001-07-30 11:20 51°25.867 3°10.39 9.6 10 20.6 102300 81
2001-07-30 11:21 51°25.955 3°10.051 9.5 10 20.5 102290 82
2001-07-30 11:22 51°26.06 3°9.724 8.7 12 20.4 102290 82
2001-07-30 11:23 51°26.205 3°9.432 9.2 10 20.4 102290 82
2001-07-30 11:24 51°26.314 3°9.107 9.1 10 20.4 102290 83
2001-07-30 11:25 51°26.434 3°8.793 9.4 11 20.4 102290 83
2001-07-30 11:26 51°26.574 3°8.496 8.8 14 20.4 102290 83
2001-07-30 11:27 51°26.724 3°8.211 8.7 13 20.4 102290 82
2001-07-30 11:28 51°26.863 3°7.911 8.8 10 20.4 102290 82
2001-07-30 11:29 51°26.993 3°7.601 8.8 15 20.5 102290 82
2001-07-30 11:30 51°27.134 3°7.304 8.7 15 20.5 102300 82
2001-07-30 11:31 51°27.266 3°6.996 9.3 15 20.5 102290 82
2001-07-30 11:32 51°27.404 3°6.698 8.8 14 20.5 102290 82
2001-07-30 11:33 51°27.565 3°6.429 7.7 18 20.5 102290 82
2001-07-30 11:34 51°27.781 3°6.385 4.7 5 20.5 102300 82
2001-07-30 11:35 51°27.919 3°6.653 5 354 20.4 102300 82
2001-07-30 11:36 51°28.017 3°6.979 5.4 355 20.4 102300 82
2001-07-30 11:37 51°28.118 3°7.307 5.5 353 20.4 102300 82
2001-07-30 11:38 51°28.206 3°7.643 5.3 355 20.4 102300 82
2001-07-30 11:39 51°28.312 3°7.967 5.1 354 20.4 102300 82
2001-07-30 11:40 51°28.411 3°8.295 4.9 349 20.4 102300 82
2001-07-30 11:41 51°28.515 3°8.622 4.7 348 20.5 102300 82
2001-07-30 11:42 51°28.605 3°8.96 4.8 347 20.5 102300 82
2001-07-30 11:43 51°28.594 3°9.311 6.2 347 20.4 102290 82
2001-07-30 11:44 51°28.53 3°9.648 6.5 347 20.4 102290 82
2001-07-30 11:45 51°28.475 3°9.988 6 344 20.3 102290 83
2001-07-30 11:46 51°28.422 3°10.328 6.4 341 20.3 102290 83
2001-07-30 11:47 51°28.355 3°10.659 6.3 341 20.2 102290 83
2001-07-30 11:48 51°28.263 3°10.962 6.6 342 20.1 102290 84
2001-07-30 11:49 51°28.133 3°11.223 6.9 337 20 102290 84
2001-07-30 11:50 51°27.999 3°11.476 6.8 336 19.9 102290 85
2001-07-30 11:51 51°27.866 3°11.725 6.7 336 19.9 102290 85
2001-07-30 11:52 51°27.731 3°11.972 6.9 338 19.9 102290 85
2001-07-30 11:53 51°27.597 3°12.22 6 334 19.8 102290 85
2001-07-30 11:54 51°27.46 3°12.46 6.4 334 19.9 102290 85
2001-07-30 11:55 51°27.314 3°12.689 6.7 337 19.9 102290 86
2001-07-30 11:56 51°27.168 3°12.917 6.7 338 19.9 102300 86
2001-07-30 11:57 51°27.021 3°13.141 7.5 349 19.9 102290 86
2001-07-30 11:58 51°26.868 3°13.356 6.9 338 20 102290 86
2001-07-30 11:59 51°26.722 3°13.587 6.9 336 20 102300 86
2001-07-30 12:00 51°26.578 3°13.812 5.7 332 19.9 102300 85
2001-07-30 12:01 51°26.445 3°14.053 6.1 334 20 102290 86
2001-07-30 12:02 51°26.306 3°14.283 6.4 337 20 102290 86
2001-07-30 12:03 51°26.158 3°14.498 6.6 335 20 102290 87
2001-07-30 12:04 51°26.011 3°14.715 6.2 333 20 102290 87
2001-07-30 12:05 51°25.889 3°14.975 5.8 331 20 102300 86
2001-07-30 12:06 51°25.767 3°15.241 6.2 332 20 102300 87
2001-07-30 12:07 51°25.645 3°15.508 5.7 329 20 102290 87
2001-07-30 12:08 51°25.539 3°15.794 5.4 329 20 102290 87
2001-07-30 12:09 51°25.452 3°16.099 5.4 334 20.1 102300 87
2001-07-30 12:10 51°25.356 3°16.395 5.1 334 20.1 102290 87
2001-07-30 12:11 51°25.264 3°16.693 5.1 332 20.1 102290 86
2001-07-30 12:12 51°25.176 3°16.991 4.7 331 20.2 102290 87
2001-07-30 12:13 51°25.089 3°17.288 4.5 333 20.2 102290 87
2001-07-30 12:14 51°24.995 3°17.579 4.4 331 20.2 102300 87
2001-07-30 12:15 51°24.914 3°17.878 4.5 334 20.3 102300 87
2001-07-30 12:16 51°24.818 3°18.168 4.8 330 20.3 102300 86
2001-07-30 12:17 51°24.679 3°18.409 5.7 333 20.3 102290 86
2001-07-30 12:18 51°24.506 3°18.589 6.8 338 20.2 102290 86
2001-07-30 12:19 51°24.303 3°18.69 7.2 336 20.3 102290 85
2001-07-30 12:20 51°24.086 3°18.693 8.1 341 20.4 102280 85
2001-07-30 12:21 51°23.868 3°18.631 8.5 337 20.5 102290 83
2001-07-30 12:22 51°23.655 3°18.513 9.4 344 20.6 102290 83
2001-07-30 12:23 51°23.458 3°18.331 9.3 349 20.8 102280 83
2001-07-30 12:24 51°23.334 3°18.02 11.7 357 20.9 102290 83
2001-07-30 12:25 51°23.296 3°17.642 12.5 359 21 102280 81
2001-07-30 12:26 51°23.26 3°17.262 11.6 358 21.1 102280 81
2001-07-30 12:27 51°23.236 3°16.878 12 1 21.2 102280 80
2001-07-30 12:28 51°23.212 3°16.491 11.3 359 21.2 102290 79
2001-07-30 12:29 51°23.187 3°16.106 11.4 1 21.2 102280 79
2001-07-30 12:30 51°23.152 3°15.723 12.2 360 21.3 102280 80
2001-07-30 12:31 51°23.127 3°15.336 10.5 3 21.3 102290 81
2001-07-30 12:32 51°23.093 3°14.95 11.5 359 21.2 102290 79
2001-07-30 12:33 51°23.036 3°14.574 10.9 359 21.2 102290 81
2001-07-30 12:34 51°22.966 3°14.21 11.1 2 21.2 102290 81
2001-07-30 12:35 51°22.933 3°13.833 10.9 3 21.2 102290 80
2001-07-30 12:36 51°22.894 3°13.453 11.5 3 21.2 102280 81
2001-07-30 12:37 51°22.879 3°13.069 11.9 6 21.2 102290 80
2001-07-30 12:38 51°22.86 3°12.687 11.3 2 21.2 102280 81
2001-07-30 12:39 51°22.83 3°12.309 11.2 360 21.2 102290 80
2001-07-30 12:40 51°22.795 3°11.936 12.3 2 21.2 102290 81
2001-07-30 12:41 51°22.765 3°11.564 12 1 21.2 102290 80
2001-07-30 12:42 51°22.723 3°11.195 11.7 1 21.2 102280 78
2001-07-30 12:43 51°22.674 3°10.827 12.7 1 21.2 102280 78
2001-07-30 12:44 51°22.62 3°10.462 11.4 1 21.3 102290 79
2001-07-30 12:45 51°22.567 3°10.099 11.3 359 21.3 102290 80
2001-07-30 12:46 51°22.497 3°9.744 11.6 1 21.2 102290 79
2001-07-30 12:47 51°22.443 3°9.378 11.5 2 21.2 102290 80
2001-07-30 12:48 51°22.382 3°9.012 12.2 7 21.2 102290 80
2001-07-30 12:49 51°22.324 3°8.645 12 1 21.2 102290 80
2001-07-30 12:50 51°22.269 3°8.277 11.5 1 21.2 102290 79
2001-07-30 12:51 51°22.201 3°7.916 12.3 3 21.2 102290 79
2001-07-30 12:52 51°22.146 3°7.55 11.4   21.2 102290 80
2001-07-30 12:53 51°22.062 3°7.2 12 358 21.2 102290 80
2001-07-30 12:54 51°21.981 3°6.847 11.6 3 21.2 102290 80
2001-07-30 12:55 51°21.909 3°6.488 11.9 1 21.2 102290 81
2001-07-30 12:56 51°21.84 3°6.126 11.7 359 21.1 102280 79
2001-07-30 12:57 51°21.773 3°5.763 12.4   21.1 102280 78
2001-07-30 12:58 51°21.711 3°5.402 11.4 8 21.2 102290 77
2001-07-30 12:59 51°21.659 3°5.037 12.6 3 21.2 102280 78
2001-07-30 13:00 51°21.582 3°4.684 11.4 2 21.2 102290 77
2001-07-30 13:01 51°21.494 3°4.338 11.6 1 21.2 102290 77
2001-07-30 13:02 51°21.412 3°3.988 11.7   21.2 102290 77
2001-07-30 13:03 51°21.325 3°3.64 12 2 21.2 102290 78
2001-07-30 13:04 51°21.24 3°3.292 12 359 21.2 102290 77
2001-07-30 13:05 51°21.158 3°2.942 11.8 2 21.2 102290 77
2001-07-30 13:06 51°21.071 3°2.595 10.8 360 21.2 102290 77
2001-07-30 13:07 51°20.985 3°2.248 11.2 359 21.2 102290 77
2001-07-30 13:08 51°20.899 3°1.901 11.8 1 21.2 102290 77
2001-07-30 13:09 51°20.814 3°1.552 12.2 2 21.2 102290 78
2001-07-30 13:10 51°20.729 3°1.203 11.4 2 21.2 102290 78
2001-07-30 13:11 51°20.647 3°0.851 11.2 360 21.2 102300 79
2001-07-30 13:12 51°20.559 3°0.5 10.9 359 21.2 102290 79
2001-07-30 13:13 51°20.48 3°0.147 11.5 359 21.2 102300 79
2001-07-30 13:14 51°20.397 2°59.795 11.6 2 21.2 102290 79
2001-07-30 13:15 51°20.308 2°59.445 11.6 357 21.2 102290 79
2001-07-30 13:16 51°20.222 2°59.093 12 358 21.2 102290 80
2001-07-30 13:17 51°20.131 2°58.743 11.9 357 21.1 102290 80
2001-07-30 13:18 51°20.047 2°58.389 11.1 358 21 102290 79
2001-07-30 13:19 51°19.963 2°58.037 11.5 2 21 102290 80
2001-07-30 13:20 51°19.875 2°57.682 11.1 360 21 102290 80
2001-07-30 13:21 51°19.785 2°57.328 11.1 359 21.1 102290 81
2001-07-30 13:22 51°19.696 2°56.976 11.2 360 21 102300 80
2001-07-30 13:23 51°19.606 2°56.625 10.8   21 102300 80
2001-07-30 13:24 51°19.523 2°56.272 11.4 360 21 102290 80
2001-07-30 13:25 51°19.43 2°55.922 10.6 359 20.9 102290 80
2001-07-30 13:26 51°19.346 2°55.569 10.9 357 20.9 102290 80
2001-07-30 13:27 51°19.261 2°55.218 11 358 20.9 102290 80
2001-07-30 13:28 51°19.187 2°54.861 10.1 360 20.9 102290 81
2001-07-30 13:29 51°19.101 2°54.51 11 358 20.9 102290 80
2001-07-30 13:30 51°18.994 2°54.178 9.6 357 21 102290 81
2001-07-30 13:31 51°18.846 2°53.884 10.1 355 21 102290 81
2001-07-30 13:32 51°18.694 2°53.596 9.7 356 21 102290 80
2001-07-30 13:33 51°18.548 2°53.301 9.5 357 21 102280 79
2001-07-30 13:34 51°18.397 2°53.01 10.3 355 21 102290 79
2001-07-30 13:35 51°18.249 2°52.714 9.8 356 21 102290 79
2001-07-30 13:36 51°18.067 2°52.479 8.8 350 21 102290 79
2001-07-30 13:37 51°17.852 2°52.342 7.6 348 21.1 102290 80
2001-07-30 13:38 51°17.625 2°52.283 7.6 343 21.1 102300 80
2001-07-30 13:39 51°17.398 2°52.311 6.5 341 21 102300 79
2001-07-30 13:40 51°17.189 2°52.468 5.6 346 20.8 102300 79
2001-07-30 13:41 51°16.994 2°52.611 6.3 345 20.7 102290 79
2001-07-30 13:42 51°16.791 2°52.757 5.8 335 20.7 102300 79
2001-07-30 13:43 51°16.584 2°52.898 5.6 339 20.7 102300 80
2001-07-30 13:44 51°16.375 2°53.04 5.5 332 20.7 102300 80
2001-07-30 13:45 51°16.173 2°53.177 5.5 331 20.7 102290 79
2001-07-30 13:46 51°15.973 2°53.329 5.6 332 20.7 102290 79
2001-07-30 13:47 51°15.773 2°53.482 5.1 335 20.7 102290 80
2001-07-30 13:48 51°15.58 2°53.679 5.2 336 20.7 102290 78
2001-07-30 13:49 51°15.4 2°53.862 4.7 337 20.8 102300 78
2001-07-30 13:50 51°15.215 2°54.053 4.3 334 20.7 102300 78
2001-07-30 13:51 51°15.033 2°54.248 4.5 334 20.8 102300 79
2001-07-30 13:52 51°14.847 2°54.455 4.6 344 20.8 102300 77
2001-07-30 13:53 51°14.674 2°54.66 4.6 341 20.9 102300 78
2001-07-30 13:54 51°14.499 2°54.874 5.1 345 21 102300 78
2001-07-30 13:55 51°14.338 2°55.115 4.4 346 21.1 102310 77
2001-07-30 13:56 51°14.208 2°55.331 2 329 21.3 102310 77
2001-07-30 13:57 51°14.113 2°55.405 2.3 306 21.5 102310 76
2001-07-30 13:58 51°14.011 2°55.479 1.3 209 21.5 102300 75
2001-07-30 13:59 51°13.9 2°55.558 0.2 337 21.6 102300 73
2001-07-30 14:00 51°13.809 2°55.638 0.8 159 21.8 102300 72
2001-07-30 14:01 51°13.755 2°55.714 1.3 197 22 102290 70
2001-07-30 14:02 51°13.716 2°55.78 1.7 207 22.3 102290 68
2001-07-30 14:03 51°13.695 2°55.851 1 129 22.5 102290 68
2001-07-30 14:04 51°13.678 2°55.918 1 185 22.6 102290 68
2001-07-30 14:05 51°13.676 2°55.923 2.1 170 22.8 102300 68
2001-07-30 14:06 51°13.676 2°55.924 1.3 168 22.9 102290 68